Time;durP1;ratioP1;P1;durP2;ratioP2;P2;SDS_P1;SDS_P2;PMS_P1;PMS_P2;Temp;Humidity;BMP_temperature;BMP_pressure;BME280_temperature;BME280_humidity;BME280_pressure;Samples;Min_cycle;Max_cycle;Signal;HPM_P1;HPM_P2
2023/01/08 00:02:20;;;;;;;13.93;8.68;;;25.20;97.40;;;;;;5120377;28;20030;-59
2023/01/08 00:04:47;;;;;;;13.80;9.10;;;25.20;97.50;;;;;;5120952;28;20215;-58
2023/01/08 00:07:13;;;;;;;22.80;16.60;;;25.20;97.60;;;;;;5113154;28;20337;-61
2023/01/08 00:09:40;;;;;;;18.42;12.27;;;25.20;97.60;;;;;;5119940;27;20027;-53
2023/01/08 00:12:07;;;;;;;18.27;11.45;;;25.20;97.50;;;;;;5126946;27;20024;-58
2023/01/08 00:14:33;;;;;;;13.32;8.65;;;25.20;97.50;;;;;;5114364;28;20152;-59
2023/01/08 00:17:01;;;;;;;12.77;7.38;;;25.20;97.40;;;;;;5109354;28;20016;-59
2023/01/08 00:19:30;;;;;;;9.57;6.75;;;25.20;97.20;;;;;;5113904;28;20107;-61
2023/01/08 00:21:56;;;;;;;11.38;5.90;;;25.20;97.10;;;;;;5123450;28;20068;-55
2023/01/08 00:24:23;;;;;;;8.68;5.35;;;25.20;97.00;;;;;;5117247;28;20035;-55
2023/01/08 00:26:49;;;;;;;10.63;5.30;;;25.30;97.00;;;;;;5117349;28;20219;-59
2023/01/08 00:29:16;;;;;;;10.48;4.85;;;25.20;97.00;;;;;;5116769;28;20295;-61
2023/01/08 00:31:44;;;;;;;8.38;5.20;;;25.20;97.10;;;;;;5114454;28;20415;-56
2023/01/08 00:34:10;;;;;;;9.80;4.53;;;25.20;97.10;;;;;;5125238;28;20334;-56
2023/01/08 00:36:38;;;;;;;10.15;4.45;;;25.20;96.90;;;;;;5119039;28;20031;-59
2023/01/08 00:39:04;;;;;;;8.80;4.78;;;25.20;97.00;;;;;;5120356;28;20039;-54
2023/01/08 00:41:31;;;;;;;8.70;4.50;;;25.10;97.10;;;;;;5114099;28;20031;-58
2023/01/08 00:43:58;;;;;;;8.55;4.70;;;25.10;97.20;;;;;;5126162;28;20080;-58
2023/01/08 00:46:24;;;;;;;6.95;4.55;;;25.00;97.20;;;;;;5122882;28;20091;-57
2023/01/08 00:48:51;;;;;;;7.85;4.13;;;25.00;97.40;;;;;;5115620;28;20038;-54
2023/01/08 00:51:17;;;;;;;9.88;6.03;;;24.90;97.30;;;;;;5117872;28;20308;-56
2023/01/08 00:53:44;;;;;;;10.85;5.68;;;25.00;97.10;;;;;;5125293;28;20384;-57
2023/01/08 00:56:11;;;;;;;7.72;4.90;;;25.00;97.00;;;;;;5125459;28;20258;-57
2023/01/08 00:58:38;;;;;;;11.57;5.30;;;25.00;96.90;;;;;;5125418;28;20094;-60
2023/01/08 01:01:14;;;;;;;9.73;5.18;;;24.90;96.90;;;;;;5127246;27;20027;-58
2023/01/08 01:03:41;;;;;;;10.15;5.65;;;24.90;96.80;;;;;;5130042;27;20043;-57
2023/01/08 01:06:09;;;;;;;11.23;5.07;;;24.90;96.70;;;;;;5125372;28;20031;-51
2023/01/08 01:08:36;;;;;;;9.38;4.65;;;24.90;96.60;;;;;;5125269;28;20027;-57
2023/01/08 01:11:12;;;;;;;7.15;4.38;;;24.90;96.50;;;;;;5124967;28;20027;-57
2023/01/08 01:13:38;;;;;;;10.40;5.38;;;24.90;96.50;;;;;;5130764;27;20074;-57
2023/01/08 01:16:05;;;;;;;11.25;5.03;;;24.90;96.40;;;;;;5135959;27;20023;-59
2023/01/08 01:18:32;;;;;;;10.98;5.20;;;24.90;96.30;;;;;;5117876;28;20198;-54
2023/01/08 01:20:58;;;;;;;10.40;5.00;;;24.90;96.00;;;;;;5121740;28;20076;-53
2023/01/08 01:23:25;;;;;;;11.23;5.00;;;24.90;96.10;;;;;;5125031;28;20065;-55
2023/01/08 01:25:53;;;;;;;9.50;4.80;;;24.90;96.00;;;;;;5133031;27;20027;-53
2023/01/08 01:28:19;;;;;;;10.23;4.93;;;24.90;95.90;;;;;;5139606;27;20031;-55
2023/01/08 01:30:54;;;;;;;11.82;4.90;;;24.90;96.10;;;;;;5124320;28;20043;-55
2023/01/08 01:33:21;;;;;;;6.93;4.05;;;24.90;96.00;;;;;;5124315;28;20027;-55
2023/01/08 01:35:48;;;;;;;9.43;4.30;;;24.80;96.00;;;;;;5128850;28;20315;-56
2023/01/08 01:38:14;;;;;;;10.98;4.20;;;24.80;96.00;;;;;;5143597;28;20297;-60
2023/01/08 01:40:42;;;;;;;7.50;4.30;;;24.80;95.80;;;;;;5145573;28;20027;-57
2023/01/08 01:43:13;;;;;;;7.72;4.57;;;24.80;95.70;;;;;;5145569;28;20034;-55
2023/01/08 01:45:41;;;;;;;7.20;4.57;;;24.80;95.90;;;;;;5141344;28;20034;-57
2023/01/08 01:48:12;;;;;;;9.68;4.53;;;24.80;95.70;;;;;;5135847;28;20038;-56
2023/01/08 01:50:49;;;;;;;11.80;4.40;;;24.80;95.70;;;;;;5145572;28;20053;-55
2023/01/08 01:53:28;;;;;;;12.05;4.43;;;24.80;95.60;;;;;;5144930;28;20323;-54
2023/01/08 01:55:56;;;;;;;10.32;4.30;;;24.80;95.60;;;;;;5117483;28;20027;-56
2023/01/08 01:58:32;;;;;;;10.95;4.53;;;24.80;95.40;;;;;;5124389;28;20219;-57
2023/01/08 02:01:04;;;;;;;11.85;4.00;;;24.80;95.50;;;;;;5123328;28;20027;-58
2023/01/08 02:03:34;;;;;;;7.93;4.13;;;24.80;95.40;;;;;;5118796;28;20034;-57
2023/01/08 02:06:23;;;;;;;10.30;4.40;;;24.70;95.40;;;;;;5111813;28;20040;-60
2023/01/08 02:09:01;;;;;;;10.57;4.13;;;24.70;95.40;;;;;;5068090;28;20047;-56
2023/01/08 02:12:15;;;;;;;8.98;4.32;;;24.70;95.30;;;;;;5111128;28;20024;-56
2023/01/08 02:14:54;;;;;;;8.82;3.63;;;24.60;95.40;;;;;;5110473;28;20023;-60
2023/01/08 02:17:36;;;;;;;9.73;4.40;;;24.60;95.40;;;;;;5114606;28;20040;-57
2023/01/08 02:20:14;;;;;;;10.02;4.30;;;24.60;95.50;;;;;;5121573;28;20388;-56
2023/01/08 02:22:52;;;;;;;7.75;4.35;;;24.60;95.50;;;;;;5111461;28;20387;-56
2023/01/08 02:25:40;;;;;;;9.40;4.15;;;24.50;95.40;;;;;;5122064;28;20015;-58
2023/01/08 02:28:13;;;;;;;8.95;4.80;;;24.60;95.60;;;;;;5144290;28;20275;-62
2023/01/08 02:30:42;;;;;;;7.00;4.25;;;24.50;95.50;;;;;;5144271;28;20023;-57
2023/01/08 02:33:08;;;;;;;12.27;4.28;;;24.60;95.50;;;;;;5113897;28;20189;-62
2023/01/08 02:35:53;;;;;;;12.93;4.55;;;24.50;95.40;;;;;;5112660;28;20053;-58
2023/01/08 02:38:21;;;;;;;8.60;3.70;;;24.50;95.20;;;;;;5112567;28;20059;-58
2023/01/08 02:40:56;;;;;;;7.03;3.58;;;24.60;95.20;;;;;;5121707;28;20257;-57
2023/01/08 02:43:53;;;;;;;7.57;4.03;;;24.60;95.40;;;;;;5123441;28;20039;-59
2023/01/08 02:46:30;;;;;;;9.32;4.10;;;24.60;95.50;;;;;;5086516;28;20048;-58
2023/01/08 02:49:06;;;;;;;5.72;3.53;;;24.60;95.30;;;;;;5114758;28;20070;-60
2023/01/08 02:51:54;;;;;;;7.78;3.80;;;24.60;95.40;;;;;;5116532;28;20030;-61
2023/01/08 02:54:26;;;;;;;8.23;3.83;;;24.60;95.50;;;;;;5116460;28;20028;-58
2023/01/08 02:57:01;;;;;;;6.68;3.72;;;24.60;95.60;;;;;;5123759;28;20016;-57
2023/01/08 02:59:30;;;;;;;7.47;4.20;;;24.70;95.40;;;;;;5111058;28;20044;-57
2023/01/08 03:01:58;;;;;;;7.05;4.20;;;24.90;95.10;;;;;;5118091;28;20221;-57
2023/01/08 03:04:27;;;;;;;8.13;4.00;;;24.90;94.90;;;;;;5117571;28;20027;-57
2023/01/08 03:06:53;;;;;;;7.43;3.53;;;25.10;94.70;;;;;;5117507;28;20054;-57
2023/01/08 03:09:20;;;;;;;28.55;6.25;;;25.10;94.50;;;;;;5120740;28;20041;-59
2023/01/08 03:11:47;;;;;;;21.02;5.05;;;25.20;94.40;;;;;;5118104;28;20027;-56
2023/01/08 03:14:22;;;;;;;11.85;4.03;;;25.30;94.20;;;;;;5115393;28;20019;-62
2023/01/08 03:17:16;;;;;;;12.55;4.18;;;25.30;94.10;;;;;;5123092;28;20023;-56
2023/01/08 03:19:53;;;;;;;7.25;4.00;;;25.40;94.10;;;;;;5117535;28;20056;-56
2023/01/08 03:22:23;;;;;;;9.38;3.97;;;25.40;94.00;;;;;;5113187;28;20280;-56
2023/01/08 03:24:52;;;;;;;7.15;3.60;;;25.40;93.90;;;;;;5101196;28;20038;-57
2023/01/08 03:27:23;;;;;;;6.80;3.53;;;25.50;93.90;;;;;;5104344;28;20208;-56
2023/01/08 03:29:53;;;;;;;5.80;3.17;;;25.50;93.80;;;;;;5101098;28;20056;-56
2023/01/08 03:32:21;;;;;;;6.45;3.83;;;25.50;93.70;;;;;;5106254;28;20033;-55
2023/01/08 03:34:49;;;;;;;6.45;3.60;;;25.50;93.70;;;;;;5108437;28;20065;-57
2023/01/08 03:37:21;;;;;;;5.80;3.40;;;25.50;93.50;;;;;;5113842;28;20032;-57
2023/01/08 03:39:56;;;;;;;7.32;3.88;;;25.50;93.50;;;;;;5113252;27;20085;-59
2023/01/08 03:42:25;;;;;;;8.90;3.47;;;25.50;93.40;;;;;;5126495;28;20058;-57
2023/01/08 03:44:52;;;;;;;5.90;3.47;;;25.50;93.40;;;;;;5105596;28;20047;-57
2023/01/08 03:47:21;;;;;;;7.88;3.63;;;25.50;93.40;;;;;;5106075;28;20047;-57
2023/01/08 03:49:50;;;;;;;6.38;3.30;;;25.50;93.30;;;;;;5105510;28;20092;-57
2023/01/08 03:52:24;;;;;;;6.35;3.17;;;25.50;93.20;;;;;;5106057;28;20073;-55
2023/01/08 03:54:51;;;;;;;5.85;3.47;;;25.50;93.10;;;;;;5115453;28;20110;-57
2023/01/08 03:57:18;;;;;;;5.85;3.15;;;25.60;93.20;;;;;;5116433;28;20028;-53
2023/01/08 03:59:44;;;;;;;6.15;3.35;;;25.60;93.10;;;;;;5125574;28;20375;-58
2023/01/08 04:02:11;;;;;;;6.22;3.40;;;25.60;93.10;;;;;;5124802;28;20078;-57
2023/01/08 04:04:38;;;;;;;4.85;3.25;;;25.60;93.10;;;;;;5114037;28;20103;-57
2023/01/08 04:07:07;;;;;;;5.97;3.88;;;25.60;93.10;;;;;;5115405;28;20028;-62
2023/01/08 04:09:33;;;;;;;8.77;4.05;;;25.60;93.20;;;;;;5124115;28;20035;-61
2023/01/08 04:12:00;;;;;;;8.00;3.90;;;25.60;93.20;;;;;;5119804;28;20203;-56
2023/01/08 04:14:26;;;;;;;7.43;3.78;;;25.60;93.30;;;;;;5106065;28;20275;-57
2023/01/08 04:16:53;;;;;;;10.80;4.35;;;25.60;93.30;;;;;;5105519;28;20024;-55
2023/01/08 04:19:19;;;;;;;8.02;3.85;;;25.60;93.30;;;;;;5105374;28;22060;-53
2023/01/08 04:21:48;;;;;;;6.97;3.33;;;25.60;93.40;;;;;;5116438;28;20063;-57
2023/01/08 04:24:15;;;;;;;7.07;3.72;;;25.60;93.40;;;;;;5107264;28;20035;-58
2023/01/08 04:26:42;;;;;;;7.45;3.83;;;25.60;93.40;;;;;;5117077;28;20028;-57
2023/01/08 04:29:08;;;;;;;5.25;3.80;;;25.60;93.30;;;;;;5105059;28;20032;-55
2023/01/08 04:31:35;;;;;;;7.95;3.72;;;25.60;93.40;;;;;;5105283;28;20304;-56
2023/01/08 04:34:02;;;;;;;8.85;3.60;;;25.60;93.60;;;;;;5105109;28;20408;-54
2023/01/08 04:36:28;;;;;;;10.88;3.58;;;25.60;93.40;;;;;;5096693;28;20370;-58
2023/01/08 04:38:55;;;;;;;8.07;3.22;;;25.60;93.30;;;;;;5105406;28;20020;-55
2023/01/08 04:41:22;;;;;;;9.07;3.88;;;25.60;93.20;;;;;;5104695;28;20315;-56
2023/01/08 04:43:48;;;;;;;7.57;4.18;;;25.60;93.20;;;;;;5104739;28;20081;-56
2023/01/08 04:46:15;;;;;;;8.35;4.50;;;25.60;93.20;;;;;;5104497;28;20095;-53
2023/01/08 04:48:42;;;;;;;12.05;4.70;;;25.60;93.10;;;;;;5112744;28;20042;-56
2023/01/08 04:51:08;;;;;;;8.48;4.90;;;25.60;93.10;;;;;;5124889;28;20304;-58
2023/01/08 04:53:36;;;;;;;9.70;4.47;;;25.60;93.10;;;;;;5125637;28;20099;-59
2023/01/08 04:56:08;;;;;;;8.00;4.20;;;25.60;93.00;;;;;;5116594;28;20023;-52
2023/01/08 04:58:36;;;;;;;8.32;4.10;;;25.60;92.90;;;;;;5104620;28;20336;-56
2023/01/08 05:01:17;;;;;;;5.88;3.95;;;25.60;92.90;;;;;;5104507;28;20038;-55
2023/01/08 05:03:43;;;;;;;6.50;3.60;;;25.60;92.80;;;;;;5103529;28;20042;-55
2023/01/08 05:06:10;;;;;;;6.72;3.63;;;25.60;92.70;;;;;;5104382;28;20222;-56
2023/01/08 05:08:37;;;;;;;11.32;3.67;;;25.70;92.60;;;;;;5104599;28;20032;-57
2023/01/08 05:11:04;;;;;;;10.13;3.67;;;25.60;92.60;;;;;;5104208;28;20032;-62
2023/01/08 05:13:30;;;;;;;4.05;2.88;;;25.60;92.50;;;;;;5104442;28;20012;-56
2023/01/08 05:16:01;;;;;;;8.70;3.10;;;25.70;92.50;;;;;;5104317;28;20102;-58
2023/01/08 05:18:28;;;;;;;5.95;3.30;;;25.60;92.40;;;;;;5104198;28;20077;-56
2023/01/08 05:20:59;;;;;;;5.35;2.97;;;25.70;92.40;;;;;;5104138;28;20051;-56
2023/01/08 05:23:25;;;;;;;6.82;2.92;;;25.70;92.40;;;;;;5104502;28;20057;-59
2023/01/08 05:25:52;;;;;;;4.40;2.80;;;25.70;92.40;;;;;;5104086;28;20031;-57
2023/01/08 05:28:18;;;;;;;5.80;3.00;;;25.70;92.40;;;;;;5104288;28;20103;-61
2023/01/08 05:30:45;;;;;;;7.30;3.08;;;25.70;92.40;;;;;;5103829;28;20073;-56
2023/01/08 05:33:11;;;;;;;6.25;2.85;;;25.70;92.40;;;;;;5110123;28;20047;-56
2023/01/08 05:35:39;;;;;;;6.15;3.05;;;25.70;92.40;;;;;;5113348;28;20305;-55
2023/01/08 05:38:06;;;;;;;5.90;3.03;;;25.70;92.50;;;;;;5105123;28;20020;-59
2023/01/08 05:40:33;;;;;;;7.05;3.00;;;25.70;92.40;;;;;;5124353;28;20065;-56
2023/01/08 05:43:00;;;;;;;10.02;3.40;;;25.70;92.50;;;;;;5124500;28;20035;-56
2023/01/08 05:45:27;;;;;;;8.57;3.60;;;25.70;92.70;;;;;;5124327;28;20054;-56
2023/01/08 05:47:53;;;;;;;14.88;4.25;;;25.70;92.50;;;;;;5110158;28;20104;-57
2023/01/08 05:50:20;;;;;;;26.17;4.80;;;25.70;92.60;;;;;;5104077;28;20286;-56
2023/01/08 05:52:47;;;;;;;18.10;4.50;;;25.70;92.60;;;;;;5103810;28;20197;-57
2023/01/08 05:55:13;;;;;;;20.05;5.18;;;25.80;92.70;;;;;;5103651;28;20073;-57
2023/01/08 05:57:40;;;;;;;23.67;5.13;;;25.70;92.70;;;;;;5104116;28;20081;-56
2023/01/08 06:00:08;;;;;;;27.75;5.07;;;25.70;92.70;;;;;;5103547;28;20023;-60
2023/01/08 06:02:35;;;;;;;18.88;4.82;;;25.70;92.90;;;;;;5103778;28;20051;-58
2023/01/08 06:05:01;;;;;;;23.33;5.05;;;25.70;93.00;;;;;;5103779;28;20027;-58
2023/01/08 06:07:28;;;;;;;14.88;4.00;;;25.70;93.10;;;;;;5103937;28;20050;-56
2023/01/08 06:09:55;;;;;;;12.18;4.00;;;25.70;93.30;;;;;;5103783;28;20099;-56
2023/01/08 06:12:21;;;;;;;12.88;4.30;;;25.70;93.30;;;;;;5103841;28;20049;-56
2023/01/08 06:14:48;;;;;;;15.95;5.00;;;25.70;93.50;;;;;;5106700;28;20028;-56
2023/01/08 06:17:16;;;;;;;15.48;5.50;;;25.70;93.70;;;;;;5118049;28;20084;-55
2023/01/08 06:19:42;;;;;;;18.58;6.40;;;25.60;94.00;;;;;;5115279;28;20044;-55
2023/01/08 06:22:09;;;;;;;14.13;5.65;;;25.60;94.30;;;;;;5107573;28;20219;-59
2023/01/08 06:24:35;;;;;;;18.08;5.97;;;25.60;94.60;;;;;;5107619;28;20381;-60
2023/01/08 06:27:02;;;;;;;19.52;6.10;;;25.60;94.70;;;;;;5107358;28;20024;-51
2023/01/08 06:29:28;;;;;;;32.33;6.78;;;25.60;94.80;;;;;;5107639;28;20051;-55
2023/01/08 06:31:55;;;;;;;34.40;7.63;;;25.60;94.90;;;;;;5107302;28;20026;-55
2023/01/08 06:34:22;;;;;;;41.00;8.30;;;25.60;95.10;;;;;;5107659;28;20074;-54
2023/01/08 06:36:50;;;;;;;40.22;8.38;;;25.60;95.20;;;;;;5107347;28;20019;-56
2023/01/08 06:39:16;;;;;;;41.25;9.35;;;25.60;95.20;;;;;;5107611;28;20024;-55
2023/01/08 06:41:43;;;;;;;53.35;9.05;;;25.60;95.30;;;;;;5106938;28;20038;-58
2023/01/08 06:44:10;;;;;;;39.95;7.40;;;25.60;95.30;;;;;;5107720;28;20061;-55
2023/01/08 06:46:39;;;;;;;24.17;6.72;;;25.60;95.40;;;;;;5107199;28;20122;-55
2023/01/08 06:49:06;;;;;;;21.75;6.43;;;25.60;95.50;;;;;;5107305;28;20189;-57
2023/01/08 06:51:33;;;;;;;31.27;6.57;;;25.50;95.50;;;;;;5106891;28;20020;-55
2023/01/08 06:53:59;;;;;;;32.90;6.90;;;25.50;95.50;;;;;;5107070;28;20316;-56
2023/01/08 06:56:26;;;;;;;35.92;6.88;;;25.50;95.50;;;;;;5106667;28;20028;-56
2023/01/08 06:58:52;;;;;;;32.20;7.03;;;25.50;95.50;;;;;;5107049;28;20042;-56
2023/01/08 07:01:21;;;;;;;24.55;5.97;;;25.50;95.60;;;;;;5110686;28;20193;-53
2023/01/08 07:03:48;;;;;;;20.90;5.20;;;25.50;95.50;;;;;;5127489;28;20096;-56
2023/01/08 07:06:17;;;;;;;16.10;4.85;;;25.50;95.60;;;;;;5126386;28;20272;-56
2023/01/08 07:08:44;;;;;;;17.02;5.18;;;25.50;95.60;;;;;;5126053;28;20038;-54
2023/01/08 07:11:11;;;;;;;15.63;5.00;;;25.50;95.60;;;;;;5125233;28;20030;-54
2023/01/08 07:13:38;;;;;;;13.45;4.75;;;25.50;95.60;;;;;;5125258;28;20030;-60
2023/01/08 07:16:09;;;;;;;14.35;5.03;;;25.50;95.60;;;;;;5126163;28;20196;-55
2023/01/08 07:18:36;;;;;;;10.45;4.07;;;25.50;95.60;;;;;;5127195;28;20199;-55
2023/01/08 07:21:07;;;;;;;12.23;4.30;;;25.50;95.60;;;;;;5126947;28;20372;-56
2023/01/08 07:23:34;;;;;;;8.60;4.35;;;25.50;95.70;;;;;;5126758;28;20032;-58
2023/01/08 07:26:02;;;;;;;6.93;4.00;;;25.50;95.70;;;;;;5125871;28;20023;-56
2023/01/08 07:28:29;;;;;;;11.85;4.15;;;25.50;95.70;;;;;;5126873;28;20019;-55
2023/01/08 07:30:56;;;;;;;7.18;3.63;;;25.50;95.70;;;;;;5124785;28;20030;-56
2023/01/08 07:33:23;;;;;;;6.13;3.40;;;25.60;95.60;;;;;;5124897;28;20024;-56
2023/01/08 07:35:54;;;;;;;7.03;3.13;;;25.60;95.40;;;;;;5124951;28;20024;-56
2023/01/08 07:38:21;;;;;;;14.70;3.88;;;25.60;95.30;;;;;;5124949;28;20216;-53
2023/01/08 07:40:48;;;;;;;7.65;2.90;;;25.50;95.00;;;;;;5124845;28;20411;-56
2023/01/08 07:43:15;;;;;;;5.70;2.35;;;25.50;94.80;;;;;;5124873;28;20036;-53
2023/01/08 07:45:42;;;;;;;8.15;2.80;;;25.50;94.60;;;;;;5125103;28;20027;-56
2023/01/08 07:48:15;;;;;;;9.68;3.05;;;25.50;94.50;;;;;;5126315;28;20450;-57
2023/01/08 07:50:44;;;;;;;28.77;3.00;;;25.50;94.20;;;;;;5126289;28;20365;-63
2023/01/08 07:53:12;;;;;;;17.92;3.08;;;25.40;94.00;;;;;;5125544;28;20279;-57
2023/01/08 07:55:39;;;;;;;25.38;4.22;;;25.40;93.90;;;;;;5126064;28;20020;-56
2023/01/08 07:58:13;;;;;;;21.40;3.70;;;25.40;93.90;;;;;;5126419;28;20024;-53
2023/01/08 08:00:40;;;;;;;12.15;3.15;;;25.40;93.70;;;;;;5125251;28;20031;-51
2023/01/08 08:03:11;;;;;;;13.15;3.33;;;25.30;93.60;;;;;;5126136;28;20035;-54
2023/01/08 08:05:38;;;;;;;25.77;4.35;;;25.30;93.60;;;;;;5126097;28;20028;-60
2023/01/08 08:08:12;;;;;;;25.80;4.57;;;25.30;93.70;;;;;;5125783;28;20035;-55
2023/01/08 08:10:40;;;;;;;23.63;3.80;;;25.30;93.80;;;;;;5126031;28;20020;-53
2023/01/08 08:13:07;;;;;;;21.92;4.03;;;25.20;93.80;;;;;;5126029;28;20027;-52
2023/01/08 08:15:34;;;;;;;19.98;3.95;;;25.20;93.90;;;;;;5125844;28;20016;-54
2023/01/08 08:18:02;;;;;;;14.40;3.58;;;25.20;93.90;;;;;;5125459;28;20224;-53
2023/01/08 08:20:29;;;;;;;9.43;2.78;;;25.20;93.80;;;;;;5125311;28;20043;-57
2023/01/08 08:23:03;;;;;;;10.32;2.67;;;25.30;93.50;;;;;;5125701;28;20061;-54
2023/01/08 08:25:31;;;;;;;11.38;3.00;;;25.20;93.20;;;;;;5125723;28;20045;-56
2023/01/08 08:27:59;;;;;;;8.20;2.70;;;25.20;93.10;;;;;;5125547;28;20032;-55
2023/01/08 08:30:28;;;;;;;6.68;2.38;;;25.20;92.90;;;;;;5125605;28;20034;-56
2023/01/08 08:32:57;;;;;;;4.40;1.80;;;25.10;92.70;;;;;;5125638;28;20022;-54
2023/01/08 08:35:23;;;;;;;5.68;1.92;;;25.10;92.70;;;;;;5125439;28;20095;-55
2023/01/08 08:37:50;;;;;;;2.97;1.80;;;25.10;92.60;;;;;;5125365;28;20279;-56
2023/01/08 08:40:17;;;;;;;2.97;1.75;;;25.10;92.60;;;;;;5125307;28;20267;-56
2023/01/08 08:42:43;;;;;;;4.00;1.73;;;25.00;92.50;;;;;;5125298;28;20041;-55
2023/01/08 08:45:10;;;;;;;3.08;1.70;;;25.00;92.50;;;;;;5125221;28;20012;-57
2023/01/08 08:47:36;;;;;;;4.53;1.60;;;25.00;92.50;;;;;;5125197;28;20020;-56
2023/01/08 08:50:05;;;;;;;4.57;1.70;;;25.00;92.60;;;;;;5125072;28;20061;-58
2023/01/08 08:52:33;;;;;;;3.38;1.42;;;24.90;92.70;;;;;;5125190;28;20212;-61
2023/01/08 08:54:59;;;;;;;2.92;1.55;;;24.90;92.70;;;;;;5125109;28;20030;-62
2023/01/08 08:57:27;;;;;;;2.42;1.50;;;24.90;92.80;;;;;;5124900;28;20020;-65
2023/01/08 08:59:53;;;;;;;2.97;1.98;;;24.90;92.90;;;;;;5124870;28;20357;-65
2023/01/08 09:02:20;;;;;;;2.63;1.88;;;24.90;93.00;;;;;;5124888;28;20091;-65
2023/01/08 09:04:46;;;;;;;5.25;2.05;;;24.90;93.00;;;;;;5124712;28;20030;-65
2023/01/08 09:07:13;;;;;;;3.83;2.10;;;24.90;93.00;;;;;;5124898;28;20031;-65
2023/01/08 09:09:39;;;;;;;3.15;2.00;;;24.80;93.10;;;;;;5124890;28;20028;-57
2023/01/08 09:12:06;;;;;;;4.18;2.35;;;24.80;93.20;;;;;;5124661;28;20022;-55
2023/01/08 09:14:33;;;;;;;3.00;2.13;;;24.90;93.30;;;;;;5124812;28;20039;-57
2023/01/08 09:16:59;;;;;;;5.40;2.15;;;24.90;93.40;;;;;;5124604;28;20023;-59
2023/01/08 09:19:26;;;;;;;5.35;2.10;;;24.80;93.30;;;;;;5124368;28;20043;-61
2023/01/08 09:21:52;;;;;;;3.42;2.20;;;24.80;93.30;;;;;;5124818;28;20035;-57
2023/01/08 09:24:19;;;;;;;4.97;2.63;;;24.80;93.30;;;;;;5125015;28;20191;-56
2023/01/08 09:26:45;;;;;;;5.22;2.40;;;24.80;93.40;;;;;;5124538;28;20019;-56
2023/01/08 09:29:12;;;;;;;4.53;2.10;;;24.80;93.40;;;;;;5125022;28;20426;-55
2023/01/08 09:31:38;;;;;;;5.00;2.03;;;24.80;93.30;;;;;;5124661;28;20027;-58
2023/01/08 09:34:05;;;;;;;3.28;2.25;;;24.80;93.20;;;;;;5124857;28;20047;-56
2023/01/08 09:36:32;;;;;;;3.40;1.90;;;24.80;93.20;;;;;;5124460;28;20020;-54
2023/01/08 09:38:59;;;;;;;7.28;2.10;;;24.80;93.40;;;;;;5123519;28;20374;-54
2023/01/08 09:41:33;;;;;;;4.38;2.10;;;24.70;93.20;;;;;;5120918;28;20276;-53
2023/01/08 09:44:02;;;;;;;5.40;1.88;;;24.70;93.20;;;;;;5121965;28;20035;-56
2023/01/08 09:46:29;;;;;;;6.25;1.98;;;24.80;93.20;;;;;;5110115;28;20246;-59
2023/01/08 09:49:00;;;;;;;4.72;1.80;;;24.80;93.20;;;;;;5112668;28;20032;-55
2023/01/08 09:51:34;;;;;;;4.75;2.00;;;24.80;93.20;;;;;;5124996;28;20015;-57
2023/01/08 09:54:01;;;;;;;4.10;1.90;;;24.70;93.20;;;;;;5129047;28;20250;-56
2023/01/08 09:56:29;;;;;;;4.05;1.80;;;24.70;93.20;;;;;;5128454;28;20011;-56
2023/01/08 09:58:59;;;;;;;3.28;1.83;;;24.70;93.30;;;;;;5128879;28;20028;-56
2023/01/08 10:01:37;;;;;;;2.97;1.80;;;24.70;93.30;;;;;;5117817;28;20039;-56
2023/01/08 10:04:14;;;;;;;3.58;1.83;;;24.70;93.20;;;;;;5107803;28;20028;-58
2023/01/08 10:06:45;;;;;;;3.72;1.70;;;24.70;93.20;;;;;;5107882;28;20051;-56
2023/01/08 10:09:14;;;;;;;2.53;1.60;;;24.70;93.20;;;;;;5110268;28;20032;-58
2023/01/08 10:11:44;;;;;;;2.95;1.30;;;24.70;93.20;;;;;;5113145;28;20050;-56
2023/01/08 10:14:23;;;;;;;6.70;1.52;;;24.70;93.10;;;;;;5115528;28;20031;-58
2023/01/08 10:16:56;;;;;;;2.25;1.58;;;24.70;93.00;;;;;;5126451;28;20015;-64
2023/01/08 10:19:23;;;;;;;4.45;1.40;;;24.70;93.00;;;;;;5110220;28;20113;-50
2023/01/08 10:21:50;;;;;;;5.63;1.70;;;24.70;93.00;;;;;;5107969;28;20066;-57
2023/01/08 10:24:18;;;;;;;2.58;1.38;;;24.70;93.00;;;;;;5118990;28;20054;-55
2023/01/08 10:26:46;;;;;;;4.50;1.63;;;24.70;93.00;;;;;;5128011;28;20027;-58
2023/01/08 10:29:17;;;;;;;3.88;1.48;;;24.70;93.00;;;;;;5128220;28;20042;-56
2023/01/08 10:32:00;;;;;;;3.88;1.48;;;24.70;93.00;;;;;;5127884;28;20069;-57
2023/01/08 10:34:55;;;;;;;4.38;1.40;;;24.70;93.00;;;;;;5118037;28;20397;-56
2023/01/08 10:37:51;;;;;;;3.42;1.48;;;24.70;93.10;;;;;;5104902;28;20087;-56
2023/01/08 10:40:30;;;;;;;4.05;1.40;;;24.70;93.20;;;;;;5076400;28;20036;-57
2023/01/08 10:43:04;;;;;;;2.50;1.48;;;24.70;93.30;;;;;;5107499;28;20308;-57
2023/01/08 10:45:31;;;;;;;3.25;1.50;;;24.70;93.30;;;;;;5107097;28;20032;-59
2023/01/08 10:48:04;;;;;;;3.03;1.52;;;24.70;93.40;;;;;;5110416;28;20027;-57
2023/01/08 10:50:33;;;;;;;4.40;1.70;;;24.70;93.40;;;;;;5127426;28;20249;-61
2023/01/08 10:53:20;;;;;;;6.53;1.52;;;24.70;93.50;;;;;;5127497;28;20053;-61
2023/01/08 10:56:01;;;;;;;5.22;1.65;;;24.70;93.60;;;;;;5127363;28;20027;-61
2023/01/08 10:58:29;;;;;;;4.03;1.70;;;24.60;93.60;;;;;;5122063;28;20079;-62
2023/01/08 11:01:07;;;;;;;4.47;1.33;;;24.60;93.60;;;;;;5111348;27;20053;-56
2023/01/08 11:03:34;;;;;;;3.13;1.60;;;24.60;93.70;;;;;;5109533;28;20028;-53
2023/01/08 11:06:13;;;;;;;3.08;1.75;;;24.60;93.90;;;;;;5118312;28;20106;-57
2023/01/08 11:08:52;;;;;;;2.83;1.83;;;24.60;93.80;;;;;;5115566;28;20240;-55
2023/01/08 11:11:19;;;;;;;3.17;1.80;;;24.60;93.80;;;;;;5122373;27;20035;-55
2023/01/08 11:14:00;;;;;;;5.15;1.90;;;24.60;93.80;;;;;;5148006;27;20019;-54
2023/01/08 11:16:36;;;;;;;3.53;1.70;;;24.60;93.80;;;;;;5129669;27;20034;-57
2023/01/08 11:19:03;;;;;;;9.50;2.65;;;24.60;93.80;;;;;;5127319;28;20019;-53
2023/01/08 11:21:31;;;;;;;9.65;2.17;;;24.70;94.00;;;;;;5126090;28;20102;-55
2023/01/08 11:24:11;;;;;;;6.70;2.13;;;24.70;93.90;;;;;;5127154;28;20103;-56
2023/01/08 11:26:43;;;;;;;6.38;1.92;;;24.70;93.80;;;;;;5125859;28;20032;-53
2023/01/08 11:29:17;;;;;;;6.30;1.83;;;24.60;93.80;;;;;;5125868;28;20042;-56
2023/01/08 11:31:54;;;;;;;4.35;1.98;;;24.40;94.10;;;;;;5126585;28;20032;-57
2023/01/08 11:34:53;;;;;;;4.30;1.75;;;24.20;94.60;;;;;;5107245;28;20058;-55
2023/01/08 11:37:36;;;;;;;2.15;1.63;;;23.90;95.00;;;;;;5120123;28;20032;-60
2023/01/08 11:40:02;;;;;;;;;;;23.80;95.20;;;;;;5127095;28;20217;-60
2023/01/08 11:43:11;;;;;;;2.88;1.60;;;23.60;95.40;;;;;;5116175;28;19931;-59
2023/01/08 11:46:16;;;;;;;5.78;2.30;;;23.70;95.60;;;;;;5107975;28;20329;-55
2023/01/08 11:48:56;;;;;;;5.18;1.60;;;23.90;95.30;;;;;;5079575;28;20114;-56
2023/01/08 11:51:55;;;;;;;2.25;1.60;;;24.00;95.00;;;;;;5116493;28;20019;-60
2023/01/08 11:55:12;;;;;;;3.28;1.52;;;24.10;94.80;;;;;;5089352;28;20040;-61
2023/01/08 11:57:50;;;;;;;5.05;1.70;;;24.20;94.60;;;;;;5052463;28;20351;-55
2023/01/08 12:00:35;;;;;;;3.58;1.80;;;24.20;94.50;;;;;;5122454;28;20030;-54
2023/01/08 12:03:23;;;;;;;4.53;1.73;;;24.30;94.40;;;;;;5104724;28;20078;-55
2023/01/08 12:06:03;;;;;;;3.10;1.67;;;24.30;94.40;;;;;;5103808;28;20054;-53
2023/01/08 12:08:44;;;;;;;4.00;1.90;;;24.30;94.30;;;;;;5112710;28;20323;-58
2023/01/08 12:11:29;;;;;;;5.37;1.77;;;24.30;94.30;;;;;;5121938;28;20035;-57
2023/01/08 12:14:17;;;;;;;2.42;1.80;;;24.40;94.30;;;;;;5125812;28;20055;-57
2023/01/08 12:16:53;;;;;;;5.03;2.10;;;24.40;94.30;;;;;;5126048;28;20035;-57
2023/01/08 12:19:39;;;;;;;3.47;1.95;;;24.40;94.30;;;;;;5126179;28;20099;-57
2023/01/08 12:22:18;;;;;;;3.58;1.88;;;24.40;94.30;;;;;;5125839;28;20254;-56
2023/01/08 12:25:28;;;;;;;5.25;2.20;;;24.40;94.20;;;;;;5125594;28;20023;-56
2023/01/08 12:28:21;;;;;;;2.63;1.85;;;24.50;94.20;;;;;;5117671;28;20182;-58
2023/01/08 12:31:17;;;;;;;3.22;1.77;;;24.50;94.20;;;;;;5119954;28;20023;-56
2023/01/08 12:33:52;;;;;;;2.75;1.85;;;24.50;94.20;;;;;;5121419;28;20220;-57
2023/01/08 12:36:35;;;;;;;3.60;1.65;;;24.50;94.20;;;;;;5125334;28;20019;-57
2023/01/08 12:39:30;;;;;;;3.25;2.03;;;24.60;94.30;;;;;;5119359;28;20247;-56
2023/01/08 12:42:10;;;;;;;4.40;1.88;;;24.60;94.30;;;;;;5116349;28;20035;-59
2023/01/08 12:44:39;;;;;;;3.95;1.77;;;24.60;94.30;;;;;;5119049;28;20103;-52
2023/01/08 12:47:12;;;;;;;8.10;2.00;;;24.60;94.30;;;;;;5124935;28;20061;-59
2023/01/08 12:49:47;;;;;;;5.10;2.00;;;24.60;94.40;;;;;;5122883;28;20065;-51
2023/01/08 12:52:57;;;;;;;5.30;2.08;;;24.60;94.50;;;;;;5120615;28;20028;-58
2023/01/08 12:55:39;;;;;;;6.30;1.88;;;24.70;94.50;;;;;;5104393;28;20032;-56
2023/01/08 12:58:24;;;;;;;3.97;1.85;;;24.70;94.40;;;;;;5119953;28;20353;-57
2023/01/08 13:00:56;;;;;;;5.78;2.30;;;24.80;94.40;;;;;;5121041;28;20038;-56
2023/01/08 13:03:26;;;;;;;7.85;2.30;;;24.80;94.40;;;;;;5124386;28;20038;-58
2023/01/08 13:06:03;;;;;;;7.00;1.80;;;24.80;94.50;;;;;;5124719;28;20098;-57